Flight Track Log - Related Links

Times and Time Zones

All times are in EDT time to prevent confusion due to time zone crossing. See the AAL832 flight status page for this flight to view local times or setup timezone preferences in your user account.

Time Position Orientation Groundspeed Altitude Reporting Facility
EDT Latitude Longitude Course Direction KTS MPH feet Rate Location/Type
Thu 12:33:33 PM 33.9430 -118.4720 264° West 192 221 1,600  Level FlightAware ADS-B
Thu 12:33:45 PM 33.9420 -118.4890 266° West 202 232 2,000 1,333 Climbing FlightAware ADS-B
Thu 12:34:09 PM 33.9400 -118.5180 265° West 230 265 2,400 1,424 Climbing FlightAware ADS-B
Thu 12:34:44 PM 33.9360 -118.5670 264° West 259 298 3,400 2,073 Climbing FlightAware ADS-B
Thu 12:35:04 PM 33.9320 -118.5970 261° West 259 298 4,300 2,286 Climbing FlightAware ADS-B
Thu 12:36:29 PM 33.8550 -118.5910 176° South 270 311 7,400 2,200 Climbing FlightAware ADS-B
Thu 12:37:04 PM 33.8670 -118.5440 73° East 273 314 8,700 2,100 Climbing FlightAware ADS-B
Thu 12:37:29 PM 33.8860 -118.5120 54° Northeast 283 326 9,500 1,754 Climbing FlightAware ADS-B
Thu 12:38:09 PM 33.9200 -118.4550 54° Northeast 306 352 10,600 2,118 Climbing FlightAware ADS-B
Thu 12:38:54 PM 33.9550 -118.3940 55° Northeast 302 348 12,500 2,541 Climbing FlightAware ADS-B
Thu 12:39:34 PM 33.9880 -118.3350 56° Northeast 303 349 14,200 1,950 Climbing FlightAware ADS-B
Thu 12:40:14 PM 34.0210 -118.2780 55° Northeast 333 383 15,100 1,059 Climbing FlightAware ADS-B
Thu 12:40:59 PM 34.0600 -118.2080 56° Northeast 375 432 15,700 1,412 Climbing FlightAware ADS-B
Thu 12:41:39 PM 34.1010 -118.1360 55° Northeast 385 443 17,100 2,071 Climbing FlightAware ADS-B
Thu 12:42:23 PM 34.1560 -118.0390 56° Northeast 403 464 18,600 2,133 Climbing FlightAware ADS-B
Thu 12:43:09 PM 34.2050 -117.9520 56° Northeast 406 467 20,300 1,884 Climbing FlightAware ADS-B
Thu 12:43:49 PM 34.2430 -117.8850 56° Northeast 413 475 21,300 1,590 Climbing FlightAware ADS-B
Thu 12:44:32 PM 34.2940 -117.7930 56° Northeast 424 488 22,500 1,714 Climbing FlightAware ADS-B
Thu 12:45:06 PM 34.3310 -117.7260 56° Northeast 430 495 23,500 1,554 Climbing FlightAware ADS-B
Thu 12:46:24 PM 34.4190 -117.5680 56° Northeast 444 511 25,400 1,424 Climbing FlightAware ADS-B
Thu 12:47:04 PM 34.4660 -117.4850 56° Northeast 451 519 26,300 1,421 Climbing FlightAware ADS-B
Thu 12:47:40 PM 34.5090 -117.4070 56° Northeast 454 522 27,200 1,465 Climbing FlightAware ADS-B
Thu 12:48:30 PM 34.5670 -117.3010 56° Northeast 456 525 28,400 1,333 Climbing FlightAware ADS-B
Thu 12:49:10 PM 34.6150 -117.2150 56° Northeast 459 528 29,200 1,463 Climbing FlightAware ADS-B
Thu 12:49:52 PM 34.6630 -117.1290 56° Northeast 455 524 30,400 1,463 Climbing FlightAware ADS-B
Thu 12:50:32 PM 34.7100 -117.0420 57° Northeast 457 526 31,200 1,125 Climbing FlightAware ADS-B
Thu 12:51:12 PM 34.7570 -116.9560 56° Northeast 458 527 31,900 1,091 Climbing FlightAware ADS-B
Thu 12:52:00 PM 34.8120 -116.8550 56° Northeast 460 529 32,800 1,116 Climbing FlightAware ADS-B
Thu 12:52:38 PM 34.8570 -116.7730 56° Northeast 459 528 33,500 1,171 Climbing FlightAware ADS-B
Thu 12:53:22 PM 34.9090 -116.6780 56° Northeast 457 526 34,400 1,023 Climbing FlightAware ADS-B
Thu 12:54:06 PM 34.9620 -116.5830 56° Northeast 460 529 35,000 825 Climbing FlightAware ADS-B
Thu 12:54:42 PM 35.0150 -116.5130 47° Northeast 462 532 35,500 825 Climbing FlightAware ADS-B
Thu 12:55:26 PM 35.0800 -116.4330 45° Northeast 463 533 36,100 750 Climbing FlightAware ADS-B
Thu 12:56:10 PM 35.1470 -116.3490 46° Northeast 462 532 36,600 628 Climbing FlightAware ADS-B
Thu 12:56:52 PM 35.2040 -116.2770 46° Northeast 461 531 37,000 286 Climbing FlightAware ADS-B
Thu 12:57:34 PM 35.2700 -116.1940 46° Northeast 462 532 37,000  Level FlightAware ADS-B
Thu 12:58:16 PM 35.3320 -116.1160 46° Northeast 462 532 37,000  Level FlightAware ADS-B
Thu 12:58:56 PM 35.3930 -116.0390 46° Northeast 461 531 37,000  Level FlightAware ADS-B
Thu 12:59:42 PM 35.4600 -115.9540 46° Northeast 460 529 37,000  Level FlightAware ADS-B
Thu 01:03:30 PM 35.7950 -115.5270 46° Northeast 456 525 37,000  Level FlightAware ADS-B
Thu 01:04:10 PM 35.8540 -115.4520 46° Northeast 458 527 37,000  Level FlightAware ADS-B
Thu 01:04:46 PM 35.9060 -115.3850 46° Northeast 458 527 37,000  Level FlightAware ADS-B
Thu 01:05:59 PM 36.0130 -115.2460 46° Northeast 461 531 37,000  Level FlightAware ADS-B
Thu 01:07:09 PM 36.1160 -115.1130 46° Northeast 463 533 37,000  Level FlightAware ADS-B
Thu 01:07:49 PM 36.1770 -115.0370 45° Northeast 463 533 37,000  Level FlightAware ADS-B
Thu 01:08:37 PM 36.2490 -114.9460 46° Northeast 464 534 37,000  Level FlightAware ADS-B
Thu 01:09:15 PM 36.3060 -114.8730 46° Northeast 463 533 37,000  Level FlightAware ADS-B
Thu 01:09:59 PM 36.3710 -114.7900 46° Northeast 463 533 37,000  Level FlightAware ADS-B
Thu 01:10:43 PM 36.4360 -114.7050 46° Northeast 462 532 37,000  Level FlightAware ADS-B
Thu 01:12:20 PM 36.5770 -114.5210 46° Northeast 459 528 37,000  Level FlightAware ADS-B
Thu 01:13:02 PM 36.6360 -114.4430 47° Northeast 458 527 37,000  Level FlightAware ADS-B
Thu 01:13:46 PM 36.7000 -114.3590 46° Northeast 458 527 37,000  Level FlightAware ADS-B
Thu 01:14:29 PM 36.7620 -114.2730 48° Northeast 456 525 37,000  Level FlightAware ADS-B
Thu 01:15:04 PM 36.8010 -114.1940 58° Northeast 456 525 37,000  Level FlightAware ADS-B
Thu 01:15:52 PM 36.8550 -114.0840 58° Northeast 459 528 37,000  Level FlightAware ADS-B
Thu 01:16:32 PM 36.8990 -113.9930 59° Northeast 460 529 37,000  Level FlightAware ADS-B
Thu 01:17:08 PM 36.9380 -113.9110 59° Northeast 460 529 37,000  Level FlightAware ADS-B
Thu 01:17:58 PM 36.9910 -113.7990 59° Northeast 460 529 37,000  Level FlightAware ADS-B
Thu 01:18:38 PM 37.0360 -113.7050 59° Northeast 458 527 37,000  Level FlightAware ADS-B
Thu 01:19:21 PM 37.0820 -113.6070 60° Northeast 456 525 37,000  Level FlightAware ADS-B
Thu 01:19:57 PM 37.1210 -113.5270 59° Northeast 454 522 37,000  Level FlightAware ADS-B
Thu 01:20:40 PM 37.1670 -113.4300 59° Northeast 452 520 37,000  Level FlightAware ADS-B
Thu 01:21:23 PM 37.2060 -113.3480 59° Northeast 452 520 37,000  Level FlightAware ADS-B
Thu 01:22:01 PM 37.2400 -113.2750 60° Northeast 452 520 37,000  Level FlightAware ADS-B
Thu 01:22:49 PM 37.2840 -113.1830 59° Northeast 452 520 37,000  Level FlightAware ADS-B
Thu 01:24:02 PM 37.3510 -113.0430 59° Northeast 452 520 37,000  Level FlightAware ADS-B
Thu 01:24:36 PM 37.3820 -112.9780 59° Northeast 452 520 37,000  Level FlightAware ADS-B
Thu 01:25:24 PM 37.4260 -112.8860 59° Northeast 452 520 37,000  Level FlightAware ADS-B
Thu 01:26:14 PM 37.4720 -112.7900 59° Northeast 452 520 37,000  Level FlightAware ADS-B
Thu 01:26:52 PM 37.5070 -112.7170 59° Northeast 452 520 37,000  Level FlightAware ADS-B
Thu 01:27:38 PM 37.5490 -112.6290 59° Northeast 452 520 37,000  Level FlightAware ADS-B
Thu 01:28:14 PM 37.5820 -112.5600 59° Northeast 452 520 37,000  Level FlightAware ADS-B
Thu 01:29:02 PM 37.6260 -112.4670 59° Northeast 452 520 37,000  Level FlightAware ADS-B
Thu 01:29:38 PM 37.6590 -112.3980 59° Northeast 452 520 37,000  Level FlightAware ADS-B
Thu 01:30:16 PM 37.7736 -112.1581 59° Northeast 451 519 37,000  Level Denver Center
Thu 01:35:42 PM 38.1827 -111.4430 59° Northeast 447 514 37,000  Level FlightAware ADS-B
Thu 01:36:35 PM 38.2461 -111.3300 54° Northeast 447 514 37,000  Level FlightAware ADS-B
Thu 01:37:26 PM 38.3020 -111.2320 54° Northeast 445 512 37,000  Level FlightAware ADS-B
Thu 01:37:37 PM 38.3211 -111.1970 55° Northeast 447 514 37,000  Level FlightAware ADS-B
Thu 01:38:10 PM 38.3604 -111.1270 54° Northeast 447 514 37,000  Level FlightAware ADS-B
Thu 01:38:43 PM 38.3995 -111.0570 55° Northeast 447 514 37,000  Level FlightAware ADS-B
Thu 01:39:28 PM 38.4530 -110.9610 55° Northeast 447 514 37,000  Level FlightAware ADS-B
Thu 01:40:35 PM 38.5320 -110.8190 55° Northeast 449 517 37,000  Level FlightAware ADS-B
Thu 01:41:19 PM 38.5850 -110.7240 54° Northeast 450 518 37,000  Level FlightAware ADS-B
Thu 01:42:06 PM 38.6370 -110.6300 55° Northeast 450 518 37,000  Level FlightAware ADS-B
Thu 01:42:46 PM 38.6890 -110.5340 55° Northeast 450 518 37,000  Level FlightAware ADS-B
Thu 01:43:25 PM 38.7340 -110.4520 55° Northeast 450 518 37,000  Level FlightAware ADS-B
Thu 01:44:07 PM 38.7830 -110.3630 55° Northeast 449 517 37,000  Level FlightAware ADS-B
Thu 01:44:51 PM 38.8390 -110.2620 55° Northeast 448 516 37,000  Level FlightAware ADS-B
Thu 01:48:00 PM 39.0320 -109.9080 55° Northeast 448 516 37,000  Level FlightAware ADS-B
Thu 01:48:39 PM 39.1060 -109.7670 56° Northeast 442 509 37,000  Level FlightAware ADS-B
Thu 01:49:20 PM 39.1500 -109.6860 55° Northeast 442 509 37,000  Level FlightAware ADS-B
Thu 01:51:11 PM 39.2830 -109.4370 55° Northeast 442 509 37,000  Level FlightAware ADS-B
Thu 01:52:04 PM 39.3410 -109.3280 55° Northeast 444 511 37,000  Level FlightAware ADS-B
Thu 01:52:50 PM 39.3970 -109.2200 56° Northeast 445 512 37,000  Level FlightAware ADS-B
Thu 01:53:33 PM 39.4400 -109.1400 55° Northeast 447 514 37,000  Level FlightAware ADS-B
Thu 01:54:14 PM 39.4940 -109.0360 56° Northeast 449 517 37,000  Level FlightAware ADS-B
Thu 01:54:51 PM 39.5380 -108.9540 55° Northeast 450 518 37,000  Level FlightAware ADS-B
Thu 01:55:36 PM 39.5860 -108.8610 56° Northeast 452 520 37,000  Level FlightAware ADS-B
Thu 01:56:20 PM 39.6420 -108.7540 56° Northeast 452 520 37,000  Level FlightAware ADS-B
Thu 01:57:05 PM 39.6940 -108.6530 56° Northeast 452 520 37,000  Level FlightAware ADS-B
Thu 01:57:42 PM 39.7330 -108.5780 56° Northeast 452 520 37,000  Level FlightAware ADS-B
Thu 01:58:25 PM 39.7870 -108.4740 56° Northeast 451 519 37,000  Level FlightAware ADS-B
Thu 01:59:11 PM 39.8410 -108.3680 56° Northeast 450 518 37,000  Level FlightAware ADS-B
Thu 01:59:48 PM 39.8790 -108.2940 56° Northeast 450 518 37,000  Level FlightAware ADS-B
Thu 02:03:16 PM 40.1040 -107.8410 57° Northeast 451 519 37,000  Level FlightAware ADS-B
Thu 02:03:56 PM 40.1560 -107.7240 60° Northeast 452 520 37,000  Level FlightAware ADS-B
Thu 02:04:31 PM 40.1960 -107.6340 60° Northeast 453 521 37,000  Level FlightAware ADS-B
Thu 02:06:17 PM 40.3050 -107.3820 60° Northeast 455 524 37,000  Level FlightAware ADS-B
Thu 02:07:23 PM 40.3730 -107.2250 60° Northeast 455 524 37,000  Level FlightAware ADS-B
Thu 02:08:05 PM 40.4160 -107.1260 60° Northeast 455 524 37,000  Level FlightAware ADS-B
Thu 02:08:44 PM 40.4510 -107.0470 60° Northeast 455 524 37,000  Level FlightAware ADS-B
Thu 02:09:26 PM 40.4990 -106.9340 61° Northeast 456 525 37,000  Level FlightAware ADS-B
Thu 02:10:09 PM 40.5460 -106.8230 61° Northeast 455 524 37,000  Level FlightAware ADS-B
Thu 02:10:53 PM 40.5900 -106.7180 61° Northeast 454 522 37,000  Level FlightAware ADS-B
Thu 02:11:39 PM 40.6320 -106.6240 59° Northeast 454 522 37,000  Level FlightAware ADS-B
Thu 02:12:16 PM 40.6650 -106.5490 60° Northeast 454 522 37,000  Level FlightAware ADS-B
Thu 02:13:06 PM 40.7090 -106.4470 60° Northeast 454 522 37,000  Level FlightAware ADS-B
Thu 02:13:44 PM 40.7660 -106.3030 62° Northeast 454 522 37,000  Level FlightAware ADS-B
Thu 02:14:29 PM 40.8120 -106.1920 61° Northeast 456 525 37,000  Level FlightAware ADS-B
Thu 02:17:47 PM 40.9890 -105.7150 64° Northeast 465 535 37,000  Level FlightAware ADS-B
Thu 02:18:27 PM 41.0200 -105.5850 72° East 462 532 37,000  Level FlightAware ADS-B
Thu 02:19:10 PM 41.0470 -105.4750 72° East 460 529 37,000  Level FlightAware ADS-B
Thu 02:19:48 PM 41.0730 -105.3710 72° East 459 528 37,000  Level FlightAware ADS-B
Thu 02:20:56 PM 41.1174 -105.1860 72° East 461 531 37,000  Level FlightAware ADS-B
Thu 02:21:26 PM 41.1368 -105.1060 72° East 460 529 37,000  Level FlightAware ADS-B
Thu 02:21:57 PM 41.1569 -105.0220 72° East 460 529 37,000  Level FlightAware ADS-B
Thu 02:22:27 PM 41.1762 -104.9420 72° East 460 529 37,000  Level FlightAware ADS-B
Thu 02:22:58 PM 41.1958 -104.8590 73° East 459 528 37,000  Level FlightAware ADS-B
Thu 02:23:30 PM 41.2162 -104.7730 72° East 460 529 37,000  Level FlightAware ADS-B
Thu 02:24:00 PM 41.2354 -104.6920 72° East 461 531 37,000  Level FlightAware ADS-B
Thu 02:24:34 PM 41.2568 -104.6010 73° East 460 529 37,000  Level FlightAware ADS-B
Thu 02:25:05 PM 41.2764 -104.5170 73° East 461 531 37,000  Level FlightAware ADS-B
Thu 02:25:36 PM 41.2959 -104.4340 73° East 460 529 37,000  Level FlightAware ADS-B
Thu 02:26:06 PM 41.3149 -104.3520 73° East 459 528 37,000  Level FlightAware ADS-B
Thu 02:26:36 PM 41.3338 -104.2710 73° East 457 526 37,000  Level FlightAware ADS-B
Thu 02:27:08 PM 41.3531 -104.1880 73° East 456 525 37,000  Level FlightAware ADS-B
Thu 02:27:38 PM 41.3721 -104.1060 73° East 457 526 37,000  Level FlightAware ADS-B
Thu 02:28:09 PM 41.3909 -104.0240 73° East 457 526 37,000  Level FlightAware ADS-B
Thu 02:28:39 PM 41.4096 -103.9420 73° East 459 528 37,000  Level FlightAware ADS-B
Thu 02:29:09 PM 41.4280 -103.8610 73° East 460 529 37,000  Level FlightAware ADS-B
Thu 02:29:40 PM 41.4468 -103.7780 73° East 460 529 37,000  Level FlightAware ADS-B
Thu 02:30:10 PM 41.4653 -103.6970 73° East 461 531 37,000  Level FlightAware ADS-B
Thu 02:30:41 PM 41.4839 -103.6140 73° East 460 529 37,000  Level FlightAware ADS-B
Thu 02:31:12 PM 41.5029 -103.5290 73° East 459 528 37,000  Level FlightAware ADS-B
Thu 02:31:42 PM 41.5211 -103.4480 73° East 459 528 37,000  Level FlightAware ADS-B
Thu 02:32:13 PM 41.5401 -103.3620 74° East 459 528 37,000  Level FlightAware ADS-B
Thu 02:32:43 PM 41.5582 -103.2810 73° East 458 527 37,000  Level FlightAware ADS-B
Thu 02:33:14 PM 41.5763 -103.1990 74° East 458 527 37,000  Level FlightAware ADS-B
Thu 02:33:45 PM 41.5951 -103.1140 73° East 459 528 37,000  Level FlightAware ADS-B
Thu 02:34:21 PM 41.6161 -103.0180 74° East 458 527 37,000  Level FlightAware ADS-B
Thu 02:34:51 PM 41.6340 -102.9360 74° East 456 525 37,000  Level FlightAware ADS-B
Thu 02:35:21 PM 41.6518 -102.8550 74° East 456 525 37,000  Level FlightAware ADS-B
Thu 02:35:57 PM 41.6726 -102.7590 74° East 456 525 37,000  Level FlightAware ADS-B
Thu 02:36:28 PM 41.6906 -102.6750 74° East 456 525 37,000  Level FlightAware ADS-B
Thu 02:37:05 PM 41.7120 -102.5750 74° East 457 526 37,000  Level FlightAware ADS-B
Thu 02:37:35 PM 41.7298 -102.4920 74° East 458 527 37,000  Level FlightAware ADS-B
Thu 02:38:06 PM 41.7478 -102.4090 74° East 460 529 37,000  Level FlightAware ADS-B
Thu 02:38:36 PM 41.7654 -102.3250 74° East 461 531 37,000  Level FlightAware ADS-B
Thu 02:39:12 PM 41.7857 -102.2280 74° East 461 531 37,000  Level FlightAware ADS-B
Thu 02:39:44 PM 41.8045 -102.1390 74° East 462 532 37,000  Level FlightAware ADS-B
Thu 02:40:17 PM 41.8200 -102.0660 74° East 462 532 37,000  Level FlightAware ADS-B
Thu 02:40:39 PM 41.8362 -101.9890 74° East 463 533 37,000  Level FlightAware ADS-B
Thu 02:41:09 PM 41.8537 -101.9050 74° East 465 535 37,000  Level FlightAware ADS-B
Thu 02:41:50 PM 41.8774 -101.7900 74° East 466 536 37,000  Level FlightAware ADS-B
Thu 02:42:20 PM 41.8946 -101.7060 75° East 466 536 37,000  Level FlightAware ADS-B
Thu 02:42:58 PM 41.9111 -101.6294 75° East 464 534 37,000  Level Minneapolis Center
Thu 02:43:42 PM 41.9392 -101.4897 75° East 462 532 37,000  Level Denver Center
Thu 02:44:44 PM 41.9725 -101.3278 74° East 467 537 37,000  Level Denver Center
Thu 02:45:46 PM 42.0108 -101.1403 75° East 465 535 37,000  Level Denver Center
Thu 02:51:44 PM 42.2072 -100.1260 75° East 474 545 37,000  Level FlightAware ADS-B
Thu 02:52:14 PM 42.2238 -100.0390 76° East 476 548 37,000  Level FlightAware ADS-B
Thu 02:52:45 PM 42.2402 -99.9520 76° East 475 547 37,000  Level FlightAware ADS-B
Thu 02:53:15 PM 42.2565 -99.8649 76° East 477 549 37,000  Level FlightAware ADS-B
Thu 02:53:45 PM 42.2727 -99.7780 76° East 478 550 37,000  Level FlightAware ADS-B
Thu 02:54:15 PM 42.2889 -99.6909 76° East 478 550 37,000  Level FlightAware ADS-B
Thu 02:54:46 PM 42.3051 -99.6028 76° East 478 550 37,000  Level FlightAware ADS-B
Thu 02:55:17 PM 42.3215 -99.5135 76° East 478 550 37,000  Level FlightAware ADS-B
Thu 02:55:47 PM 42.3375 -99.4265 76° East 478 550 37,000  Level FlightAware ADS-B
Thu 02:56:54 PM 42.3731 -99.2321 76° East 477 549 37,000  Level FlightAware ADS-B
Thu 02:57:27 PM 42.3904 -99.1363 76° East 478 550 37,000  Level FlightAware ADS-B
Thu 02:57:57 PM 42.4060 -99.0498 76° East 478 550 37,000  Level FlightAware ADS-B
Thu 02:58:27 PM 42.4216 -98.9629 76° East 477 549 37,000  Level FlightAware ADS-B
Thu 02:58:58 PM 42.4373 -98.8748 76° East 478 550 37,000  Level FlightAware ADS-B
Thu 02:59:28 PM 42.4527 -98.7877 76° East 478 550 37,000  Level FlightAware ADS-B
Thu 03:01:17 PM 42.4818 -98.4623 83° East 485 558 37,000  Level FlightAware ADS-B
Thu 03:01:47 PM 42.4863 -98.3696 86° East 484 557 37,000  Level FlightAware ADS-B
Thu 03:02:18 PM 42.4907 -98.2781 86° East 485 558 37,000  Level FlightAware ADS-B
Thu 03:02:48 PM 42.4950 -98.1874 86° East 485 558 37,000  Level FlightAware ADS-B
Thu 03:03:18 PM 42.4992 -98.0955 86° East 485 558 37,000  Level FlightAware ADS-B
Thu 03:03:49 PM 42.5035 -98.0032 86° East 484 557 37,000  Level FlightAware ADS-B
Thu 03:04:19 PM 42.5076 -97.9123 86° East 484 557 37,000  Level FlightAware ADS-B
Thu 03:04:49 PM 42.5116 -97.8218 87° East 484 557 37,000  Level FlightAware ADS-B
Thu 03:05:19 PM 42.5155 -97.7306 87° East 484 557 37,000  Level FlightAware ADS-B
Thu 03:05:49 PM 42.5193 -97.6402 87° East 485 558 37,000  Level FlightAware ADS-B
Thu 03:06:19 PM 42.5231 -97.5483 87° East 485 558 37,000  Level FlightAware ADS-B
Thu 03:06:50 PM 42.5270 -97.4550 87° East 484 557 37,000  Level FlightAware ADS-B
Thu 03:07:21 PM 42.5307 -97.3625 87° East 485 558 37,000  Level FlightAware ADS-B
Thu 03:07:53 PM 42.5345 -97.2659 87° East 486 559 37,000  Level FlightAware ADS-B
Thu 03:08:23 PM 42.5380 -97.1744 87° East 487 560 37,000  Level FlightAware ADS-B
Thu 03:08:53 PM 42.5415 -97.0825 87° East 488 562 37,000  Level FlightAware ADS-B
Thu 03:09:23 PM 42.5449 -96.9913 87° East 489 563 37,000  Level FlightAware ADS-B
Thu 03:09:53 PM 42.5481 -96.8989 87° East 489 563 37,000  Level FlightAware ADS-B
Thu 03:10:25 PM 42.5516 -96.8010 87° East 490 564 37,000  Level FlightAware ADS-B
Thu 03:10:57 PM 42.5548 -96.7036 87° East 490 564 37,000  Level FlightAware ADS-B
Thu 03:11:27 PM 42.5579 -96.6109 87° East 489 563 37,000  Level FlightAware ADS-B
Thu 03:12:10 PM 42.5623 -96.4794 87° East 489 563 37,000  Level FlightAware ADS-B
Thu 03:12:40 PM 42.5652 -96.3878 88° East 488 562 37,000  Level FlightAware ADS-B
Thu 03:13:12 PM 42.5682 -96.2902 88° East 487 560 37,000  Level FlightAware ADS-B
Thu 03:13:43 PM 42.5709 -96.1980 88° East 487 560 37,000  Level FlightAware ADS-B
Thu 03:14:13 PM 42.5736 -96.1063 88° East 485 558 37,000  Level FlightAware ADS-B
Thu 03:14:43 PM 42.5762 -96.0135 88° East 485 558 37,000  Level FlightAware ADS-B
Thu 03:15:14 PM 42.5788 -95.9214 88° East 486 559 37,000  Level FlightAware ADS-B
Thu 03:15:45 PM 42.5813 -95.8276 88° East 487 560 37,000  Level FlightAware ADS-B
Thu 03:16:15 PM 42.5837 -95.7346 88° East 488 562 37,000  Level FlightAware ADS-B
Thu 03:16:45 PM 42.5860 -95.6428 88° East 489 563 37,000  Level FlightAware ADS-B
Thu 03:17:15 PM 42.5882 -95.5509 88° East 490 564 37,000  Level FlightAware ADS-B
Thu 03:17:45 PM 42.5903 -95.4580 88° East 491 565 37,000  Level FlightAware ADS-B
Thu 03:18:16 PM 42.5923 -95.3650 88° East 493 567 37,000  Level FlightAware ADS-B
Thu 03:18:46 PM 42.5943 -95.2714 88° East 493 567 37,000  Level FlightAware ADS-B
Thu 03:19:17 PM 42.5963 -95.1754 88° East 494 568 37,000  Level FlightAware ADS-B
Thu 03:19:47 PM 42.5982 -95.0816 88° East 495 570 37,000  Level FlightAware ADS-B
Thu 03:20:18 PM 42.6001 -94.9877 88° East 495 570 37,000  Level FlightAware ADS-B
Thu 03:20:58 PM 42.6025 -94.8625 88° East 495 570 37,000  Level FlightAware ADS-B
Thu 03:21:28 PM 42.6041 -94.7691 89° East 495 570 37,000  Level FlightAware ADS-B
Thu 03:21:59 PM 42.6056 -94.6744 89° East 495 570 37,000  Level FlightAware ADS-B
Thu 03:22:29 PM 42.6071 -94.5809 89° East 495 570 37,000  Level FlightAware ADS-B
Thu 03:22:59 PM 42.6086 -94.4873 89° East 496 571 37,000  Level FlightAware ADS-B
Thu 03:23:30 PM 42.6098 -94.3920 89° East 496 571 37,000  Level FlightAware ADS-B
Thu 03:24:01 PM 42.6108 -94.2949 89° East 497 572 37,000  Level FlightAware ADS-B
Thu 03:24:31 PM 42.6082 -94.2008 92° East 501 577 37,000  Level FlightAware ADS-B
Thu 03:25:02 PM 42.6053 -94.1038 92° East 503 579 37,000  Level FlightAware ADS-B
Thu 03:25:33 PM 42.6022 -94.0068 92° East 504 580 37,000  Level FlightAware ADS-B
Thu 03:26:03 PM 42.5992 -93.9103 92° East 506 582 37,000  Level FlightAware ADS-B
Thu 03:26:35 PM 42.5959 -93.8105 93° East 508 585 37,000  Level FlightAware ADS-B
Thu 03:27:09 PM 42.5923 -93.7033 93° East 510 587 37,000  Level FlightAware ADS-B
Thu 03:28:24 PM 42.5840 -93.4640 93° East 512 589 37,000  Level FlightAware ADS-B
Thu 03:29:10 PM 42.5780 -93.3140 93° East 513 590 37,000  Level FlightAware ADS-B
Thu 03:29:54 PM 42.5730 -93.1760 93° East 513 590 37,000 -170 Level FlightAware ADS-B
Thu 03:33:52 PM 42.5420 -92.4440 93° East 516 594 36,200 -343 Descending FlightAware ADS-B
Thu 03:34:34 PM 42.5340 -92.2760 94° East 520 598 35,400 -1,026 Descending FlightAware ADS-B
Thu 03:36:24 PM 42.5250 -91.9220 92° East 521 600 33,600 -960 Descending FlightAware ADS-B
Thu 03:37:04 PM 42.5260 -91.7930 89° East 522 601 33,000 -988 Descending FlightAware ADS-B
Thu 03:37:49 PM 42.5260 -91.6440 90° East 513 590 32,200 -1,059 Descending FlightAware ADS-B
Thu 03:38:29 PM 42.5270 -91.5160 89° East 507 583 31,500 -1,050 Descending FlightAware ADS-B
Thu 03:39:09 PM 42.5270 -91.3930 90° East 502 578 30,800 -1,020 Descending FlightAware ADS-B
Thu 03:41:02 PM 42.5270 -91.0420 90° East 492 566 28,900 -1,019 Descending FlightAware ADS-B
Thu 03:41:48 PM 42.5270 -90.9010 90° East 487 560 28,100 -1,000 Descending FlightAware ADS-B
Thu 03:42:26 PM 42.5260 -90.7840 91° East 486 559 27,500 -846 Descending FlightAware ADS-B
Thu 03:43:06 PM 42.5260 -90.6640 90° East 480 552 27,000 -337 Descending FlightAware ADS-B
Thu 03:43:55 PM 42.5250 -90.5180 90° East 478 550 27,000  Level FlightAware ADS-B
Thu 03:44:34 PM 42.5240 -90.3980 91° East 478 550 27,000  Level FlightAware ADS-B
Thu 03:45:12 PM 42.5230 -90.2920 91° East 477 549 27,000 -286 Level FlightAware ADS-B
Thu 03:45:58 PM 42.5220 -90.1460 90° East 507 583 26,600 -674 Descending FlightAware ADS-B
Thu 03:46:41 PM 42.5130 -90.0060 95° East 518 596 26,000 -955 Descending FlightAware ADS-B
Thu 03:47:26 PM 42.5000 -89.8620 97° East 509 586 25,200 -966 Descending FlightAware ADS-B
Thu 03:48:08 PM 42.4900 -89.7380 96° East 505 581 24,600 -947 Descending FlightAware ADS-B
Thu 03:48:42 PM 42.4800 -89.6290 97° East 495 570 24,000 -1,390 Descending FlightAware ADS-B
Thu 03:49:30 PM 42.4670 -89.4810 97° East 478 550 22,700 -2,143 Descending FlightAware ADS-B
Thu 03:50:06 PM 42.4580 -89.3770 97° East 461 531 21,000 -2,870 Descending FlightAware ADS-B
Thu 03:50:39 PM 42.4490 -89.2860 98° East 452 520 19,400 -2,769 Descending FlightAware ADS-B
Thu 03:51:24 PM 42.4380 -89.1600 97° East 434 499 17,400 -2,714 Descending FlightAware ADS-B
Thu 03:52:03 PM 42.4290 -89.0590 97° East 420 483 15,600 -2,886 Descending FlightAware ADS-B
Thu 03:52:43 PM 42.4190 -88.9510 97° East 413 475 13,600 -2,860 Descending FlightAware ADS-B
Thu 03:53:29 PM 42.4080 -88.8370 97° East 404 465 11,500 -2,372 Descending FlightAware ADS-B
Thu 03:54:09 PM 42.3980 -88.7380 98° East 398 458 10,200 -1,077 Descending FlightAware ADS-B
Thu 03:54:47 PM 42.3890 -88.6450 97° East 395 455 10,100 -75 Descending FlightAware ADS-B
Thu 03:55:29 PM 42.3790 -88.5410 97° East 392 451 10,100  Level FlightAware ADS-B
Thu 03:56:13 PM 42.3570 -88.4390 106° East 393 452 10,100  Level FlightAware ADS-B
Thu 03:56:58 PM 42.3150 -88.3460 121° Southeast 389 448 10,100  Level FlightAware ADS-B
Thu 03:57:41 PM 42.2660 -88.2640 129° Southeast 389 448 10,100  Level FlightAware ADS-B
Thu 03:58:17 PM 42.2260 -88.1970 129° Southeast 372 428 10,100 -273 Level FlightAware ADS-B
Thu 03:58:47 PM 42.1940 -88.1450 130° Southeast 336 387 9,800 -840 Descending FlightAware ADS-B
Thu 03:59:07 PM 42.1710 -88.1190 140° Southeast 324 373 9,400 -1,435 Descending FlightAware ADS-B
Thu 03:59:33 PM 42.1430 -88.0850 138° Southeast 318 366 8,700 -1,500 Descending FlightAware ADS-B
Thu 03:59:55 PM 42.1190 -88.0580 140° Southeast 315 362 8,200 -889 Descending FlightAware ADS-B
Thu 04:04:03 PM 42.0600 -87.6930 102° East 231 266 4,700 -960 Descending FlightAware ADS-B
Thu 04:04:30 PM 42.0290 -87.7210 214° Southwest 213 245 3,800 -1,714 Descending FlightAware ADS-B
Thu 04:04:45 PM 42.0200 -87.7380 235° Southwest 203 234 3,500 -1,317 Descending FlightAware ADS-B
Thu 04:05:11 PM 42.0070 -87.7640 236° Southwest 182 209 2,900 -1,075 Descending FlightAware ADS-B
Thu 04:06:31 PM 42.0030 -87.8410 266° West 145 167 1,600 -839 Descending FlightAware ADS-B
Thu 04:07:34 PM 42.0030 -87.8980 270° West 148 170 900 -667 Descending FlightAware ADS-B
Thu 04:08:02 PM 42.0030 -87.9200 270° West 68 78 -1,929 Descending FlightAware ADS-B
Thu 04:08:29 PM 42.0030 -87.9300 270° West 68 78  Level FlightAware ADS-B

Login

Don't have an account? Register now (free) for customized features, flight alerts, and more!